sensor_id;sensor_type;location;lat;lon;timestamp;temperature;humidity
47616;DHT22;69146;52.266;7.000;2023-06-10T00:02:13;20.90;76.70
47616;DHT22;69146;52.266;7.000;2023-06-10T00:04:57;20.70;77.10
47616;DHT22;69146;52.266;7.000;2023-06-10T00:07:42;20.70;77.40
47616;DHT22;69146;52.266;7.000;2023-06-10T00:10:28;20.60;77.80
47616;DHT22;69146;52.266;7.000;2023-06-10T00:13:12;20.60;78.10
47616;DHT22;69146;52.266;7.000;2023-06-10T00:15:57;20.60;78.30
47616;DHT22;69146;52.266;7.000;2023-06-10T00:18:41;20.60;78.50
47616;DHT22;69146;52.266;7.000;2023-06-10T00:21:27;20.50;78.80
47616;DHT22;69146;52.266;7.000;2023-06-10T00:24:12;20.40;79.10
47616;DHT22;69146;52.266;7.000;2023-06-10T00:27:01;20.40;79.40
47616;DHT22;69146;52.266;7.000;2023-06-10T00:29:46;20.40;79.50
47616;DHT22;69146;52.266;7.000;2023-06-10T00:32:30;20.40;79.80
47616;DHT22;69146;52.266;7.000;2023-06-10T00:35:15;20.30;80.10
47616;DHT22;69146;52.266;7.000;2023-06-10T00:38:00;20.20;80.60
47616;DHT22;69146;52.266;7.000;2023-06-10T00:40:44;20.10;81.00
47616;DHT22;69146;52.266;7.000;2023-06-10T00:43:30;20.10;81.00
47616;DHT22;69146;52.266;7.000;2023-06-10T00:46:14;20.00;81.40
47616;DHT22;69146;52.266;7.000;2023-06-10T00:48:59;20.00;81.80
47616;DHT22;69146;52.266;7.000;2023-06-10T00:51:45;19.90;82.10
47616;DHT22;69146;52.266;7.000;2023-06-10T00:54:32;19.90;82.20
47616;DHT22;69146;52.266;7.000;2023-06-10T00:57:17;19.80;82.40
47616;DHT22;69146;52.266;7.000;2023-06-10T01:00:03;19.80;82.80
47616;DHT22;69146;52.266;7.000;2023-06-10T01:02:51;19.80;83.00
47616;DHT22;69146;52.266;7.000;2023-06-10T01:05:39;19.70;83.40
47616;DHT22;69146;52.266;7.000;2023-06-10T01:08:27;19.60;83.80
47616;DHT22;69146;52.266;7.000;2023-06-10T01:11:13;19.60;84.10
47616;DHT22;69146;52.266;7.000;2023-06-10T01:14:00;19.50;84.30
47616;DHT22;69146;52.266;7.000;2023-06-10T01:16:46;19.50;84.50
47616;DHT22;69146;52.266;7.000;2023-06-10T01:19:32;19.50;84.80
47616;DHT22;69146;52.266;7.000;2023-06-10T01:22:19;19.40;85.10
47616;DHT22;69146;52.266;7.000;2023-06-10T01:25:04;19.40;85.40
47616;DHT22;69146;52.266;7.000;2023-06-10T01:27:50;19.40;85.50
47616;DHT22;69146;52.266;7.000;2023-06-10T01:30:36;19.40;85.60
47616;DHT22;69146;52.266;7.000;2023-06-10T01:33:28;19.30;85.80
47616;DHT22;69146;52.266;7.000;2023-06-10T01:36:13;19.30;86.00
47616;DHT22;69146;52.266;7.000;2023-06-10T01:39:01;19.20;86.20
47616;DHT22;69146;52.266;7.000;2023-06-10T01:41:46;19.10;86.60
47616;DHT22;69146;52.266;7.000;2023-06-10T01:44:30;19.00;87.00
47616;DHT22;69146;52.266;7.000;2023-06-10T01:47:15;19.00;87.30
47616;DHT22;69146;52.266;7.000;2023-06-10T01:49:59;18.90;87.60
47616;DHT22;69146;52.266;7.000;2023-06-10T01:52:44;18.90;87.80
47616;DHT22;69146;52.266;7.000;2023-06-10T01:55:31;18.80;88.20
47616;DHT22;69146;52.266;7.000;2023-06-10T01:58:15;18.80;88.50
47616;DHT22;69146;52.266;7.000;2023-06-10T02:01:00;18.80;88.70
47616;DHT22;69146;52.266;7.000;2023-06-10T02:03:44;18.70;88.80
47616;DHT22;69146;52.266;7.000;2023-06-10T02:06:29;18.70;89.20
47616;DHT22;69146;52.266;7.000;2023-06-10T02:09:14;18.60;89.40
47616;DHT22;69146;52.266;7.000;2023-06-10T02:11:59;18.60;89.70
47616;DHT22;69146;52.266;7.000;2023-06-10T02:14:44;18.60;90.00
47616;DHT22;69146;52.266;7.000;2023-06-10T02:17:29;18.60;90.00
47616;DHT22;69146;52.266;7.000;2023-06-10T02:20:13;18.50;90.10
47616;DHT22;69146;52.266;7.000;2023-06-10T02:22:58;18.50;90.20
47616;DHT22;69146;52.266;7.000;2023-06-10T02:25:43;18.50;90.30
47616;DHT22;69146;52.266;7.000;2023-06-10T02:28:29;18.40;90.50
47616;DHT22;69146;52.266;7.000;2023-06-10T02:31:13;18.40;90.50
47616;DHT22;69146;52.266;7.000;2023-06-10T02:33:58;18.30;90.60
47616;DHT22;69146;52.266;7.000;2023-06-10T02:36:42;18.20;90.80
47616;DHT22;69146;52.266;7.000;2023-06-10T02:39:27;18.10;91.10
47616;DHT22;69146;52.266;7.000;2023-06-10T02:42:11;18.20;91.00
47616;DHT22;69146;52.266;7.000;2023-06-10T02:44:57;18.10;91.10
47616;DHT22;69146;52.266;7.000;2023-06-10T02:47:42;18.10;91.20
47616;DHT22;69146;52.266;7.000;2023-06-10T02:50:26;18.10;91.30
47616;DHT22;69146;52.266;7.000;2023-06-10T02:53:10;18.00;91.40
47616;DHT22;69146;52.266;7.000;2023-06-10T02:55:55;17.90;91.60
47616;DHT22;69146;52.266;7.000;2023-06-10T02:58:39;17.90;91.60
47616;DHT22;69146;52.266;7.000;2023-06-10T03:01:25;17.90;91.70
47616;DHT22;69146;52.266;7.000;2023-06-10T03:04:10;17.80;91.70
47616;DHT22;69146;52.266;7.000;2023-06-10T03:06:57;17.80;91.90
47616;DHT22;69146;52.266;7.000;2023-06-10T03:09:42;17.70;92.00
47616;DHT22;69146;52.266;7.000;2023-06-10T03:12:26;17.70;92.10
47616;DHT22;69146;52.266;7.000;2023-06-10T03:15:10;17.70;92.20
47616;DHT22;69146;52.266;7.000;2023-06-10T03:17:56;17.70;92.20
47616;DHT22;69146;52.266;7.000;2023-06-10T03:20:40;17.60;92.30
47616;DHT22;69146;52.266;7.000;2023-06-10T03:23:25;17.60;92.40
47616;DHT22;69146;52.266;7.000;2023-06-10T03:26:11;17.60;92.40
47616;DHT22;69146;52.266;7.000;2023-06-10T03:28:56;17.60;92.40
47616;DHT22;69146;52.266;7.000;2023-06-10T03:31:41;17.60;92.40
47616;DHT22;69146;52.266;7.000;2023-06-10T03:34:27;17.60;92.50
47616;DHT22;69146;52.266;7.000;2023-06-10T03:37:11;17.60;92.60
47616;DHT22;69146;52.266;7.000;2023-06-10T03:39:55;17.50;92.60
47616;DHT22;69146;52.266;7.000;2023-06-10T03:42:40;17.50;92.80
47616;DHT22;69146;52.266;7.000;2023-06-10T03:45:24;17.40;92.90
47616;DHT22;69146;52.266;7.000;2023-06-10T03:48:09;17.40;92.90
47616;DHT22;69146;52.266;7.000;2023-06-10T03:50:56;17.30;93.00
47616;DHT22;69146;52.266;7.000;2023-06-10T03:53:41;17.30;93.10
47616;DHT22;69146;52.266;7.000;2023-06-10T03:56:25;17.40;93.00
47616;DHT22;69146;52.266;7.000;2023-06-10T03:59:10;17.30;92.90
47616;DHT22;69146;52.266;7.000;2023-06-10T04:01:54;17.30;93.10
47616;DHT22;69146;52.266;7.000;2023-06-10T04:04:38;17.30;93.10
47616;DHT22;69146;52.266;7.000;2023-06-10T04:07:24;17.30;93.00
47616;DHT22;69146;52.266;7.000;2023-06-10T04:10:09;17.40;93.10
47616;DHT22;69146;52.266;7.000;2023-06-10T04:12:54;17.40;93.00
47616;DHT22;69146;52.266;7.000;2023-06-10T04:15:39;17.40;93.00
47616;DHT22;69146;52.266;7.000;2023-06-10T04:18:25;17.40;93.20
47616;DHT22;69146;52.266;7.000;2023-06-10T04:21:09;17.40;93.10
47616;DHT22;69146;52.266;7.000;2023-06-10T04:23:55;17.50;92.80
47616;DHT22;69146;52.266;7.000;2023-06-10T04:26:39;17.50;92.80
47616;DHT22;69146;52.266;7.000;2023-06-10T04:29:24;17.60;92.60
47616;DHT22;69146;52.266;7.000;2023-06-10T04:32:08;17.50;92.60
47616;DHT22;69146;52.266;7.000;2023-06-10T04:34:53;17.60;92.60
47616;DHT22;69146;52.266;7.000;2023-06-10T04:37:37;17.60;92.60
47616;DHT22;69146;52.266;7.000;2023-06-10T04:40:24;17.70;92.50
47616;DHT22;69146;52.266;7.000;2023-06-10T04:43:08;17.60;92.60
47616;DHT22;69146;52.266;7.000;2023-06-10T04:45:53;17.60;92.60
47616;DHT22;69146;52.266;7.000;2023-06-10T04:48:37;17.60;92.70
47616;DHT22;69146;52.266;7.000;2023-06-10T04:51:22;17.70;92.70
47616;DHT22;69146;52.266;7.000;2023-06-10T04:54:09;17.70;92.60
47616;DHT22;69146;52.266;7.000;2023-06-10T04:56:54;17.70;92.70
47616;DHT22;69146;52.266;7.000;2023-06-10T04:59:39;17.70;92.70
47616;DHT22;69146;52.266;7.000;2023-06-10T05:02:24;17.70;92.60
47616;DHT22;69146;52.266;7.000;2023-06-10T05:05:08;17.80;92.70
47616;DHT22;69146;52.266;7.000;2023-06-10T05:07:53;17.80;92.70
47616;DHT22;69146;52.266;7.000;2023-06-10T05:10:37;17.80;92.50
47616;DHT22;69146;52.266;7.000;2023-06-10T05:13:23;17.80;92.60
47616;DHT22;69146;52.266;7.000;2023-06-10T05:16:07;17.80;92.80
47616;DHT22;69146;52.266;7.000;2023-06-10T05:18:52;17.80;92.60
47616;DHT22;69146;52.266;7.000;2023-06-10T05:21:36;17.90;92.50
47616;DHT22;69146;52.266;7.000;2023-06-10T05:24:20;17.90;92.60
47616;DHT22;69146;52.266;7.000;2023-06-10T05:27:05;17.90;92.30
47616;DHT22;69146;52.266;7.000;2023-06-10T05:29:53;18.00;92.30
47616;DHT22;69146;52.266;7.000;2023-06-10T05:32:38;18.10;92.10
47616;DHT22;69146;52.266;7.000;2023-06-10T05:35:22;18.20;92.10
47616;DHT22;69146;52.266;7.000;2023-06-10T05:38:07;18.20;91.90
47616;DHT22;69146;52.266;7.000;2023-06-10T05:40:51;18.30;91.70
47616;DHT22;69146;52.266;7.000;2023-06-10T05:43:40;18.30;91.30
47616;DHT22;69146;52.266;7.000;2023-06-10T05:46:26;18.40;91.30
47616;DHT22;69146;52.266;7.000;2023-06-10T05:49:11;18.50;91.50
47616;DHT22;69146;52.266;7.000;2023-06-10T05:51:58;18.50;91.40
47616;DHT22;69146;52.266;7.000;2023-06-10T05:54:43;18.60;91.90
47616;DHT22;69146;52.266;7.000;2023-06-10T05:57:27;18.70;91.50
47616;DHT22;69146;52.266;7.000;2023-06-10T06:00:12;18.70;91.10
47616;DHT22;69146;52.266;7.000;2023-06-10T06:02:58;18.80;91.30
47616;DHT22;69146;52.266;7.000;2023-06-10T06:05:43;18.80;91.30
47616;DHT22;69146;52.266;7.000;2023-06-10T06:08:30;18.90;91.40
47616;DHT22;69146;52.266;7.000;2023-06-10T06:11:15;19.00;91.00
47616;DHT22;69146;52.266;7.000;2023-06-10T06:13:59;19.00;91.40
47616;DHT22;69146;52.266;7.000;2023-06-10T06:16:46;19.10;91.10
47616;DHT22;69146;52.266;7.000;2023-06-10T06:19:32;19.20;91.00
47616;DHT22;69146;52.266;7.000;2023-06-10T06:22:17;19.20;90.70
47616;DHT22;69146;52.266;7.000;2023-06-10T06:25:05;19.30;90.30
47616;DHT22;69146;52.266;7.000;2023-06-10T06:27:50;19.40;90.20
47616;DHT22;69146;52.266;7.000;2023-06-10T06:30:35;19.40;90.00
47616;DHT22;69146;52.266;7.000;2023-06-10T06:33:20;19.50;90.40
47616;DHT22;69146;52.266;7.000;2023-06-10T06:36:05;19.70;90.20
47616;DHT22;69146;52.266;7.000;2023-06-10T06:38:50;19.80;90.00
47616;DHT22;69146;52.266;7.000;2023-06-10T06:41:34;20.00;89.30
47616;DHT22;69146;52.266;7.000;2023-06-10T06:44:19;20.00;88.40
47616;DHT22;69146;52.266;7.000;2023-06-10T06:47:10;20.10;88.10
47616;DHT22;69146;52.266;7.000;2023-06-10T06:49:55;20.10;88.30
47616;DHT22;69146;52.266;7.000;2023-06-10T06:52:42;20.20;88.20
47616;DHT22;69146;52.266;7.000;2023-06-10T06:55:26;20.20;88.60
47616;DHT22;69146;52.266;7.000;2023-06-10T06:58:11;20.40;87.00
47616;DHT22;69146;52.266;7.000;2023-06-10T07:00:55;20.40;86.60
47616;DHT22;69146;52.266;7.000;2023-06-10T07:03:40;20.60;86.40
47616;DHT22;69146;52.266;7.000;2023-06-10T07:06:24;20.70;85.50
47616;DHT22;69146;52.266;7.000;2023-06-10T07:09:11;20.80;85.70
47616;DHT22;69146;52.266;7.000;2023-06-10T07:11:56;20.80;86.00
47616;DHT22;69146;52.266;7.000;2023-06-10T07:14:40;21.10;85.80
47616;DHT22;69146;52.266;7.000;2023-06-10T07:17:25;21.10;84.90
47616;DHT22;69146;52.266;7.000;2023-06-10T07:20:11;21.40;84.50
47616;DHT22;69146;52.266;7.000;2023-06-10T07:22:56;21.60;83.10
47616;DHT22;69146;52.266;7.000;2023-06-10T07:25:42;21.70;82.80
47616;DHT22;69146;52.266;7.000;2023-06-10T07:28:29;21.90;82.60
47616;DHT22;69146;52.266;7.000;2023-06-10T07:31:14;22.00;82.70
47616;DHT22;69146;52.266;7.000;2023-06-10T07:33:58;22.10;81.50
47616;DHT22;69146;52.266;7.000;2023-06-10T07:36:43;22.20;81.40
47616;DHT22;69146;52.266;7.000;2023-06-10T07:39:28;22.40;82.10
47616;DHT22;69146;52.266;7.000;2023-06-10T07:42:13;22.60;81.20
47616;DHT22;69146;52.266;7.000;2023-06-10T07:44:58;22.80;80.70
47616;DHT22;69146;52.266;7.000;2023-06-10T07:47:42;22.90;80.50
47616;DHT22;69146;52.266;7.000;2023-06-10T07:50:27;23.00;77.60
47616;DHT22;69146;52.266;7.000;2023-06-10T07:53:11;23.10;78.90
47616;DHT22;69146;52.266;7.000;2023-06-10T07:55:57;23.30;79.30
47616;DHT22;69146;52.266;7.000;2023-06-10T07:58:44;23.50;79.00
47616;DHT22;69146;52.266;7.000;2023-06-10T08:01:28;23.60;79.30
47616;DHT22;69146;52.266;7.000;2023-06-10T08:04:14;23.90;79.00
47616;DHT22;69146;52.266;7.000;2023-06-10T08:06:58;23.90;78.10
47616;DHT22;69146;52.266;7.000;2023-06-10T08:09:43;24.00;78.00
47616;DHT22;69146;52.266;7.000;2023-06-10T08:12:27;24.00;77.40
47616;DHT22;69146;52.266;7.000;2023-06-10T08:15:13;24.10;76.90
47616;DHT22;69146;52.266;7.000;2023-06-10T08:17:58;24.30;76.50
47616;DHT22;69146;52.266;7.000;2023-06-10T08:20:42;24.50;76.90
47616;DHT22;69146;52.266;7.000;2023-06-10T08:23:27;24.60;79.70
47616;DHT22;69146;52.266;7.000;2023-06-10T08:26:11;24.60;77.70
47616;DHT22;69146;52.266;7.000;2023-06-10T08:28:56;24.60;76.70
47616;DHT22;69146;52.266;7.000;2023-06-10T08:31:42;24.60;75.60
47616;DHT22;69146;52.266;7.000;2023-06-10T08:34:27;24.70;76.70
47616;DHT22;69146;52.266;7.000;2023-06-10T08:37:11;24.80;75.40
47616;DHT22;69146;52.266;7.000;2023-06-10T08:39:55;25.00;75.70
47616;DHT22;69146;52.266;7.000;2023-06-10T08:42:42;25.20;75.30
47616;DHT22;69146;52.266;7.000;2023-06-10T08:45:29;25.30;74.30
47616;DHT22;69146;52.266;7.000;2023-06-10T08:48:17;25.40;74.20
47616;DHT22;69146;52.266;7.000;2023-06-10T08:51:04;25.60;73.10
47616;DHT22;69146;52.266;7.000;2023-06-10T08:53:50;25.60;72.50
47616;DHT22;69146;52.266;7.000;2023-06-10T08:56:35;25.70;73.70
47616;DHT22;69146;52.266;7.000;2023-06-10T08:59:23;25.80;72.90
47616;DHT22;69146;52.266;7.000;2023-06-10T09:02:10;26.00;73.90
47616;DHT22;69146;52.266;7.000;2023-06-10T09:04:57;26.20;72.50
47616;DHT22;69146;52.266;7.000;2023-06-10T09:07:42;26.20;70.80
47616;DHT22;69146;52.266;7.000;2023-06-10T09:10:30;26.20;72.20
47616;DHT22;69146;52.266;7.000;2023-06-10T09:13:14;26.20;72.90
47616;DHT22;69146;52.266;7.000;2023-06-10T09:16:02;26.50;73.50
47616;DHT22;69146;52.266;7.000;2023-06-10T09:18:47;26.80;72.00
47616;DHT22;69146;52.266;7.000;2023-06-10T09:21:36;27.00;72.70
47616;DHT22;69146;52.266;7.000;2023-06-10T09:24:23;27.20;71.30
47616;DHT22;69146;52.266;7.000;2023-06-10T09:27:08;27.20;71.80
47616;DHT22;69146;52.266;7.000;2023-06-10T09:29:54;27.30;71.90
47616;DHT22;69146;52.266;7.000;2023-06-10T09:32:39;27.30;71.90
47616;DHT22;69146;52.266;7.000;2023-06-10T09:35:23;27.20;70.40
47616;DHT22;69146;52.266;7.000;2023-06-10T09:38:09;27.20;71.30
47616;DHT22;69146;52.266;7.000;2023-06-10T09:40:55;27.50;70.70
47616;DHT22;69146;52.266;7.000;2023-06-10T09:43:40;27.60;70.60
47616;DHT22;69146;52.266;7.000;2023-06-10T09:46:25;27.70;70.30
47616;DHT22;69146;52.266;7.000;2023-06-10T09:49:14;27.60;69.50
47616;DHT22;69146;52.266;7.000;2023-06-10T09:51:58;27.60;69.00
47616;DHT22;69146;52.266;7.000;2023-06-10T09:54:47;27.70;69.60
47616;DHT22;69146;52.266;7.000;2023-06-10T09:57:34;27.80;69.10
47616;DHT22;69146;52.266;7.000;2023-06-10T10:00:23;28.10;68.40
47616;DHT22;69146;52.266;7.000;2023-06-10T10:03:08;28.30;67.80
47616;DHT22;69146;52.266;7.000;2023-06-10T10:05:57;28.30;68.00
47616;DHT22;69146;52.266;7.000;2023-06-10T10:08:44;28.50;67.70
47616;DHT22;69146;52.266;7.000;2023-06-10T10:11:30;28.60;66.40
47616;DHT22;69146;52.266;7.000;2023-06-10T10:14:16;28.70;66.50
47616;DHT22;69146;52.266;7.000;2023-06-10T10:17:01;28.80;66.60
47616;DHT22;69146;52.266;7.000;2023-06-10T10:19:47;28.70;66.20
47616;DHT22;69146;52.266;7.000;2023-06-10T10:22:35;28.70;67.30
47616;DHT22;69146;52.266;7.000;2023-06-10T10:25:23;28.70;66.20
47616;DHT22;69146;52.266;7.000;2023-06-10T10:28:10;28.70;66.00
47616;DHT22;69146;52.266;7.000;2023-06-10T10:30:54;28.60;65.50
47616;DHT22;69146;52.266;7.000;2023-06-10T10:33:45;28.70;66.00
47616;DHT22;69146;52.266;7.000;2023-06-10T10:36:32;28.90;66.10
47616;DHT22;69146;52.266;7.000;2023-06-10T10:39:17;29.00;66.40
47616;DHT22;69146;52.266;7.000;2023-06-10T10:42:02;28.90;64.40
47616;DHT22;69146;52.266;7.000;2023-06-10T10:44:49;29.00;65.30
47616;DHT22;69146;52.266;7.000;2023-06-10T10:47:37;29.10;65.30
47616;DHT22;69146;52.266;7.000;2023-06-10T10:50:23;29.20;65.50
47616;DHT22;69146;52.266;7.000;2023-06-10T10:53:08;29.30;64.70
47616;DHT22;69146;52.266;7.000;2023-06-10T10:56:04;29.30;64.80
47616;DHT22;69146;52.266;7.000;2023-06-10T10:59:01;29.50;62.70
47616;DHT22;69146;52.266;7.000;2023-06-10T11:01:48;29.10;61.60
47616;DHT22;69146;52.266;7.000;2023-06-10T11:04:33;29.10;62.90
47616;DHT22;69146;52.266;7.000;2023-06-10T11:07:21;29.30;63.30
47616;DHT22;69146;52.266;7.000;2023-06-10T11:10:08;29.40;63.00
47616;DHT22;69146;52.266;7.000;2023-06-10T11:12:53;29.50;62.90
47616;DHT22;69146;52.266;7.000;2023-06-10T11:15:38;29.50;61.50
47616;DHT22;69146;52.266;7.000;2023-06-10T11:18:26;29.50;61.20
47616;DHT22;69146;52.266;7.000;2023-06-10T11:21:10;29.40;60.50
47616;DHT22;69146;52.266;7.000;2023-06-10T11:23:57;29.60;60.70
47616;DHT22;69146;52.266;7.000;2023-06-10T11:26:43;29.40;60.40
47616;DHT22;69146;52.266;7.000;2023-06-10T11:29:28;29.20;60.70
47616;DHT22;69146;52.266;7.000;2023-06-10T11:32:13;29.30;60.10
47616;DHT22;69146;52.266;7.000;2023-06-10T11:34:58;29.40;58.80
47616;DHT22;69146;52.266;7.000;2023-06-10T11:37:43;29.40;59.40
47616;DHT22;69146;52.266;7.000;2023-06-10T11:40:27;29.50;60.40
47616;DHT22;69146;52.266;7.000;2023-06-10T11:43:14;29.70;60.50
47616;DHT22;69146;52.266;7.000;2023-06-10T11:45:59;29.50;59.70
47616;DHT22;69146;52.266;7.000;2023-06-10T11:48:48;29.30;59.70
47616;DHT22;69146;52.266;7.000;2023-06-10T11:51:35;29.40;60.40
47616;DHT22;69146;52.266;7.000;2023-06-10T11:54:22;29.60;58.90
47616;DHT22;69146;52.266;7.000;2023-06-10T11:57:06;29.70;59.20
47616;DHT22;69146;52.266;7.000;2023-06-10T11:59:53;29.70;60.30
47616;DHT22;69146;52.266;7.000;2023-06-10T12:02:37;29.70;59.60
47616;DHT22;69146;52.266;7.000;2023-06-10T12:05:21;30.00;60.20
47616;DHT22;69146;52.266;7.000;2023-06-10T12:08:13;30.10;59.00
47616;DHT22;69146;52.266;7.000;2023-06-10T12:10:58;30.00;58.60
47616;DHT22;69146;52.266;7.000;2023-06-10T12:13:45;30.10;59.60
47616;DHT22;69146;52.266;7.000;2023-06-10T12:16:37;30.30;58.80
47616;DHT22;69146;52.266;7.000;2023-06-10T12:19:31;30.30;58.60
47616;DHT22;69146;52.266;7.000;2023-06-10T12:22:22;30.40;57.90
47616;DHT22;69146;52.266;7.000;2023-06-10T12:25:09;30.20;58.80
47616;DHT22;69146;52.266;7.000;2023-06-10T12:27:55;30.40;59.00
47616;DHT22;69146;52.266;7.000;2023-06-10T12:30:40;30.40;56.60
47616;DHT22;69146;52.266;7.000;2023-06-10T12:33:24;30.30;57.20
47616;DHT22;69146;52.266;7.000;2023-06-10T12:36:15;30.20;58.70
47616;DHT22;69146;52.266;7.000;2023-06-10T12:39:02;30.40;59.30
47616;DHT22;69146;52.266;7.000;2023-06-10T12:41:48;30.60;59.40
47616;DHT22;69146;52.266;7.000;2023-06-10T12:44:34;30.80;59.10
47616;DHT22;69146;52.266;7.000;2023-06-10T12:47:19;31.00;57.50
47616;DHT22;69146;52.266;7.000;2023-06-10T12:50:03;31.40;56.70
47616;DHT22;69146;52.266;7.000;2023-06-10T12:52:51;31.90;56.40
47616;DHT22;69146;52.266;7.000;2023-06-10T12:55:35;32.40;55.70
47616;DHT22;69146;52.266;7.000;2023-06-10T12:58:22;32.70;55.50
47616;DHT22;69146;52.266;7.000;2023-06-10T13:01:07;32.90;55.00
47616;DHT22;69146;52.266;7.000;2023-06-10T13:03:51;33.00;55.00
47616;DHT22;69146;52.266;7.000;2023-06-10T13:06:36;33.50;54.70
47616;DHT22;69146;52.266;7.000;2023-06-10T13:09:26;34.00;53.40
47616;DHT22;69146;52.266;7.000;2023-06-10T13:12:10;34.50;53.40
47616;DHT22;69146;52.266;7.000;2023-06-10T13:14:56;34.70;52.90
47616;DHT22;69146;52.266;7.000;2023-06-10T13:17:41;35.30;53.00
47616;DHT22;69146;52.266;7.000;2023-06-10T13:20:25;35.30;51.70
47616;DHT22;69146;52.266;7.000;2023-06-10T13:23:10;35.00;52.60
47616;DHT22;69146;52.266;7.000;2023-06-10T13:25:54;35.10;52.70
47616;DHT22;69146;52.266;7.000;2023-06-10T13:28:40;35.10;52.30
47616;DHT22;69146;52.266;7.000;2023-06-10T13:31:26;34.50;53.30
47616;DHT22;69146;52.266;7.000;2023-06-10T13:34:10;34.80;53.50
47616;DHT22;69146;52.266;7.000;2023-06-10T13:36:55;35.40;52.30
47616;DHT22;69146;52.266;7.000;2023-06-10T13:39:40;35.60;52.50
47616;DHT22;69146;52.266;7.000;2023-06-10T13:42:24;35.80;52.40
47616;DHT22;69146;52.266;7.000;2023-06-10T13:45:10;35.60;51.60
47616;DHT22;69146;52.266;7.000;2023-06-10T13:47:56;35.80;51.50
47616;DHT22;69146;52.266;7.000;2023-06-10T13:50:41;35.80;51.70
47616;DHT22;69146;52.266;7.000;2023-06-10T13:53:29;35.50;51.70
47616;DHT22;69146;52.266;7.000;2023-06-10T13:56:14;35.30;51.50
47616;DHT22;69146;52.266;7.000;2023-06-10T13:58:58;35.50;51.30
47616;DHT22;69146;52.266;7.000;2023-06-10T14:01:43;35.40;52.00
47616;DHT22;69146;52.266;7.000;2023-06-10T14:04:29;35.70;51.80
47616;DHT22;69146;52.266;7.000;2023-06-10T14:07:13;35.80;52.30
47616;DHT22;69146;52.266;7.000;2023-06-10T14:09:58;35.70;51.90
47616;DHT22;69146;52.266;7.000;2023-06-10T14:12:43;35.60;52.00
47616;DHT22;69146;52.266;7.000;2023-06-10T14:15:27;35.60;52.60
47616;DHT22;69146;52.266;7.000;2023-06-10T14:18:11;35.50;52.60
47616;DHT22;69146;52.266;7.000;2023-06-10T14:20:57;36.00;52.70
47616;DHT22;69146;52.266;7.000;2023-06-10T14:23:42;35.80;51.50
47616;DHT22;69146;52.266;7.000;2023-06-10T14:26:27;35.50;51.60
47616;DHT22;69146;52.266;7.000;2023-06-10T14:29:12;35.60;52.10
47616;DHT22;69146;52.266;7.000;2023-06-10T14:31:58;35.40;51.50
47616;DHT22;69146;52.266;7.000;2023-06-10T14:34:43;35.20;51.60
47616;DHT22;69146;52.266;7.000;2023-06-10T14:37:30;35.10;51.70
47616;DHT22;69146;52.266;7.000;2023-06-10T14:40:14;35.20;51.30
47616;DHT22;69146;52.266;7.000;2023-06-10T14:42:59;35.20;50.70
47616;DHT22;69146;52.266;7.000;2023-06-10T14:45:45;35.50;50.60
47616;DHT22;69146;52.266;7.000;2023-06-10T14:48:30;35.70;50.20
47616;DHT22;69146;52.266;7.000;2023-06-10T14:51:14;35.20;50.40
47616;DHT22;69146;52.266;7.000;2023-06-10T14:54:00;35.30;50.30
47616;DHT22;69146;52.266;7.000;2023-06-10T14:56:45;35.90;50.40
47616;DHT22;69146;52.266;7.000;2023-06-10T14:59:30;35.60;49.70
47616;DHT22;69146;52.266;7.000;2023-06-10T15:02:14;35.00;50.30
47616;DHT22;69146;52.266;7.000;2023-06-10T15:04:59;34.90;50.50
47616;DHT22;69146;52.266;7.000;2023-06-10T15:07:44;34.90;50.20
47616;DHT22;69146;52.266;7.000;2023-06-10T15:10:30;35.30;50.60
47616;DHT22;69146;52.266;7.000;2023-06-10T15:13:14;35.60;50.40
47616;DHT22;69146;52.266;7.000;2023-06-10T15:15:59;35.40;50.10
47616;DHT22;69146;52.266;7.000;2023-06-10T15:18:43;36.10;50.30
47616;DHT22;69146;52.266;7.000;2023-06-10T15:21:28;36.00;49.60
47616;DHT22;69146;52.266;7.000;2023-06-10T15:24:13;36.30;49.90
47616;DHT22;69146;52.266;7.000;2023-06-10T15:26:58;35.90;49.20
47616;DHT22;69146;52.266;7.000;2023-06-10T15:29:43;35.30;50.10
47616;DHT22;69146;52.266;7.000;2023-06-10T15:32:27;35.60;50.50
47616;DHT22;69146;52.266;7.000;2023-06-10T15:35:12;35.90;49.70
47616;DHT22;69146;52.266;7.000;2023-06-10T15:37:56;36.40;49.40
47616;DHT22;69146;52.266;7.000;2023-06-10T15:40:40;36.50;49.20
47616;DHT22;69146;52.266;7.000;2023-06-10T15:43:26;36.60;49.20
47616;DHT22;69146;52.266;7.000;2023-06-10T15:46:11;36.40;49.50
47616;DHT22;69146;52.266;7.000;2023-06-10T15:48:55;36.40;49.80
47616;DHT22;69146;52.266;7.000;2023-06-10T15:51:40;36.30;49.50
47616;DHT22;69146;52.266;7.000;2023-06-10T15:54:24;36.40;49.30
47616;DHT22;69146;52.266;7.000;2023-06-10T15:57:09;36.00;49.20
47616;DHT22;69146;52.266;7.000;2023-06-10T15:59:55;35.70;49.40
47616;DHT22;69146;52.266;7.000;2023-06-10T16:02:39;35.90;49.70
47616;DHT22;69146;52.266;7.000;2023-06-10T16:05:23;35.90;49.80
47616;DHT22;69146;52.266;7.000;2023-06-10T16:08:08;35.90;49.60
47616;DHT22;69146;52.266;7.000;2023-06-10T16:10:52;35.90;50.20
47616;DHT22;69146;52.266;7.000;2023-06-10T16:13:36;36.20;49.70
47616;DHT22;69146;52.266;7.000;2023-06-10T16:16:22;36.40;49.40
47616;DHT22;69146;52.266;7.000;2023-06-10T16:19:07;36.40;49.00
47616;DHT22;69146;52.266;7.000;2023-06-10T16:21:51;36.70;49.30
47616;DHT22;69146;52.266;7.000;2023-06-10T16:24:36;36.70;49.20
47616;DHT22;69146;52.266;7.000;2023-06-10T16:27:20;36.30;49.20
47616;DHT22;69146;52.266;7.000;2023-06-10T16:30:05;36.40;48.90
47616;DHT22;69146;52.266;7.000;2023-06-10T16:32:52;36.30;49.10
47616;DHT22;69146;52.266;7.000;2023-06-10T16:35:36;36.30;49.30
47616;DHT22;69146;52.266;7.000;2023-06-10T16:38:21;35.90;49.40
47616;DHT22;69146;52.266;7.000;2023-06-10T16:41:06;35.80;50.30
47616;DHT22;69146;52.266;7.000;2023-06-10T16:43:51;36.20;50.10
47616;DHT22;69146;52.266;7.000;2023-06-10T16:46:35;36.10;49.60
47616;DHT22;69146;52.266;7.000;2023-06-10T16:49:21;36.00;49.10
47616;DHT22;69146;52.266;7.000;2023-06-10T16:52:08;35.60;49.80
47616;DHT22;69146;52.266;7.000;2023-06-10T16:55:11;35.20;50.70
47616;DHT22;69146;52.266;7.000;2023-06-10T16:57:55;34.80;51.10
47616;DHT22;69146;52.266;7.000;2023-06-10T17:00:40;34.10;51.00
47616;DHT22;69146;52.266;7.000;2023-06-10T17:03:28;33.50;51.70
47616;DHT22;69146;52.266;7.000;2023-06-10T17:06:14;33.10;52.00
47616;DHT22;69146;52.266;7.000;2023-06-10T17:08:59;32.40;52.70
47616;DHT22;69146;52.266;7.000;2023-06-10T17:11:43;32.20;53.20
47616;DHT22;69146;52.266;7.000;2023-06-10T17:14:28;31.90;53.80
47616;DHT22;69146;52.266;7.000;2023-06-10T17:17:13;31.50;53.90
47616;DHT22;69146;52.266;7.000;2023-06-10T17:19:57;31.10;54.10
47616;DHT22;69146;52.266;7.000;2023-06-10T17:22:43;30.80;54.70
47616;DHT22;69146;52.266;7.000;2023-06-10T17:25:28;30.60;55.20